Time;durP1;ratioP1;P1;durP2;ratioP2;P2;SDS_P1;SDS_P2;PMS_P1;PMS_P2;Temp;Humidity;BMP_temperature;BMP_pressure;BME280_temperature;BME280_humidity;BME280_pressure;Samples;Min_cycle;Max_cycle;Signal;HPM_P1;HPM_P2
2023/09/26 00:00:23;;;;;;;4.87;4.37;;;;;;;;;;5013103;28;20704;-59
2023/09/26 00:02:49;;;;;;;5.23;3.90;;;;;;;;;;5013041;28;20228;-58
2023/09/26 00:05:15;;;;;;;4.77;3.70;;;;;;;;;;5012815;28;20541;-59
2023/09/26 00:07:42;;;;;;;5.50;3.83;;;;;;;;;;5012520;28;20205;-59
2023/09/26 00:10:12;;;;;;;5.33;3.90;;;;;;;;;;5012727;28;20289;-59
2023/09/26 00:12:38;;;;;;;5.53;5.00;;;;;;;;;;5012509;28;20200;-59
2023/09/26 00:15:07;;;;;;;10.77;9.67;;;;;;;;;;5010891;28;20193;-59
2023/09/26 00:17:33;;;;;;;4.27;3.87;;;;;;;;;;5010889;28;20268;-58
2023/09/26 00:19:59;;;;;;;4.20;3.50;;;;;;;;;;5012450;28;20652;-58
2023/09/26 00:22:25;;;;;;;4.43;4.03;;;;;;;;;;5012329;28;20276;-56
2023/09/26 00:24:51;;;;;;;4.37;3.97;;;;;;;;;;5012550;28;20672;-57
2023/09/26 00:27:18;;;;;;;4.13;3.20;;;;;;;;;;5012609;28;20289;-57
2023/09/26 00:29:44;;;;;;;4.63;3.27;;;;;;;;;;5011362;28;20573;-56
2023/09/26 00:32:12;;;;;;;4.23;3.70;;;;;;;;;;5012437;28;20205;-57
2023/09/26 00:34:38;;;;;;;3.60;3.23;;;;;;;;;;5012356;28;20690;-56
2023/09/26 00:37:04;;;;;;;3.77;3.33;;;;;;;;;;5012423;28;20758;-57
2023/09/26 00:39:30;;;;;;;3.30;3.00;;;;;;;;;;5012238;28;20272;-57
2023/09/26 00:41:56;;;;;;;3.47;2.97;;;;;;;;;;5012329;28;20202;-57
2023/09/26 00:44:23;;;;;;;3.60;3.13;;;;;;;;;;5012219;28;20198;-57
2023/09/26 00:46:49;;;;;;;3.73;3.20;;;;;;;;;;5012457;28;20222;-57
2023/09/26 00:49:16;;;;;;;3.73;3.37;;;;;;;;;;5012267;28;20614;-57
2023/09/26 00:51:42;;;;;;;4.77;3.90;;;;;;;;;;5012409;28;20351;-57
2023/09/26 00:54:09;;;;;;;3.87;3.17;;;;;;;;;;5012225;28;20202;-57
2023/09/26 00:56:36;;;;;;;4.23;3.07;;;;;;;;;;5012236;28;20631;-57
2023/09/26 00:59:02;;;;;;;3.53;3.07;;;;;;;;;;5012392;28;20209;-57
2023/09/26 01:01:30;;;;;;;3.13;2.83;;;;;;;;;;5012251;28;20197;-57
2023/09/26 01:03:56;;;;;;;4.40;3.20;;;;;;;;;;5012370;28;20202;-57
2023/09/26 01:06:24;;;;;;;3.80;3.40;;;;;;;;;;5013429;28;20240;-57
2023/09/26 01:08:50;;;;;;;3.40;3.10;;;;;;;;;;5016274;28;20225;-57
2023/09/26 01:11:16;;;;;;;3.80;3.40;;;;;;;;;;5016101;28;20201;-57
2023/09/26 01:13:43;;;;;;;3.50;3.20;;;;;;;;;;5015907;28;20656;-57
2023/09/26 01:16:18;;;;;;;4.63;3.40;;;;;;;;;;5015641;28;20213;-57
2023/09/26 01:18:45;;;;;;;4.73;3.73;;;;;;;;;;5015920;28;20284;-57
2023/09/26 01:21:11;;;;;;;3.50;3.20;;;;;;;;;;5015861;28;20206;-58
2023/09/26 01:23:40;;;;;;;3.53;3.20;;;;;;;;;;5015982;28;20197;-58
2023/09/26 01:26:07;;;;;;;4.50;3.50;;;;;;;;;;5015891;28;20233;-57
2023/09/26 01:28:35;;;;;;;4.27;3.10;;;;;;;;;;5015897;28;20201;-57
2023/09/26 01:31:01;;;;;;;4.97;3.33;;;;;;;;;;5015775;28;20295;-57
2023/09/26 01:33:27;;;;;;;4.27;3.00;;;;;;;;;;5015544;28;20228;-57
2023/09/26 01:35:53;;;;;;;3.63;2.87;;;;;;;;;;5015581;28;20228;-57
2023/09/26 01:38:21;;;;;;;3.40;3.10;;;;;;;;;;5015431;28;20233;-57
2023/09/26 01:40:47;;;;;;;3.67;2.93;;;;;;;;;;5015733;28;20212;-57
2023/09/26 01:43:24;;;;;;;4.97;3.03;;;;;;;;;;5015402;28;20644;-57
2023/09/26 01:45:51;;;;;;;4.63;4.23;;;;;;;;;;5013460;28;20228;-57
2023/09/26 01:48:20;;;;;;;4.00;3.60;;;;;;;;;;5011658;28;20571;-57
2023/09/26 01:50:45;;;;;;;3.80;2.97;;;;;;;;;;5015334;28;20573;-57
2023/09/26 01:53:13;;;;;;;3.87;3.10;;;;;;;;;;5015030;28;20205;-57
2023/09/26 01:55:40;;;;;;;4.30;3.40;;;;;;;;;;5015205;28;20313;-57
2023/09/26 01:58:06;;;;;;;3.50;3.20;;;;;;;;;;5014994;28;20224;-57
2023/09/26 02:00:34;;;;;;;3.23;2.93;;;;;;;;;;5014977;28;20221;-57
2023/09/26 02:03:00;;;;;;;3.80;3.40;;;;;;;;;;5014962;28;20613;-57
2023/09/26 02:05:26;;;;;;;3.20;2.90;;;;;;;;;;5012989;28;20205;-57
2023/09/26 02:07:52;;;;;;;3.60;3.20;;;;;;;;;;5014808;28;20248;-57
2023/09/26 02:10:18;;;;;;;4.10;3.10;;;;;;;;;;5014836;28;20248;-57
2023/09/26 02:12:45;;;;;;;3.30;3.00;;;;;;;;;;5014743;28;20194;-57
2023/09/26 02:15:12;;;;;;;3.80;2.80;;;;;;;;;;5014706;28;20284;-57
2023/09/26 02:17:39;;;;;;;3.23;2.90;;;;;;;;;;5013926;28;20233;-57
2023/09/26 02:20:12;;;;;;;3.23;2.93;;;;;;;;;;5014688;28;20209;-57
2023/09/26 02:22:38;;;;;;;4.27;3.00;;;;;;;;;;5014591;28;20194;-57
2023/09/26 02:25:05;;;;;;;2.80;2.60;;;;;;;;;;5014599;28;20285;-57
2023/09/26 02:27:31;;;;;;;4.37;2.77;;;;;;;;;;5014376;28;20216;-57
2023/09/26 02:29:58;;;;;;;3.33;2.97;;;;;;;;;;5014540;28;20205;-57
2023/09/26 02:32:24;;;;;;;3.53;2.70;;;;;;;;;;5014466;28;20301;-57
2023/09/26 02:34:51;;;;;;;3.03;2.67;;;;;;;;;;5014424;28;20201;-56
2023/09/26 02:37:17;;;;;;;2.80;2.60;;;;;;;;;;5012322;28;20727;-57
2023/09/26 02:39:43;;;;;;;3.43;2.70;;;;;;;;;;5012129;28;20265;-57
2023/09/26 02:42:09;;;;;;;2.67;2.37;;;;;;;;;;5013891;28;20200;-57
2023/09/26 02:44:35;;;;;;;3.27;2.50;;;;;;;;;;5014051;28;20205;-58
2023/09/26 02:47:01;;;;;;;4.10;2.50;;;;;;;;;;5014230;28;20205;-57
2023/09/26 02:49:30;;;;;;;2.80;2.50;;;;;;;;;;5013892;28;20678;-57
2023/09/26 02:51:57;;;;;;;3.00;2.70;;;;;;;;;;5014050;28;20205;-57
2023/09/26 02:54:23;;;;;;;4.30;2.40;;;;;;;;;;5013772;28;20213;-57
2023/09/26 02:56:49;;;;;;;2.70;2.23;;;;;;;;;;5013753;28;20542;-57
2023/09/26 02:59:15;;;;;;;3.10;2.60;;;;;;;;;;5013617;28;20202;-57
2023/09/26 03:01:41;;;;;;;2.60;2.40;;;;;;;;;;5013910;28;20214;-57
2023/09/26 03:04:07;;;;;;;3.07;2.77;;;;;;;;;;5013897;28;20198;-57
2023/09/26 03:06:33;;;;;;;3.30;2.43;;;;;;;;;;5013567;28;20204;-57
2023/09/26 03:09:01;;;;;;;2.60;2.40;;;;;;;;;;5013689;28;20202;-57
2023/09/26 03:11:27;;;;;;;2.87;2.33;;;;;;;;;;5013485;28;20221;-57
2023/09/26 03:13:53;;;;;;;3.60;2.50;;;;;;;;;;5013479;28;20683;-57
2023/09/26 03:16:19;;;;;;;3.10;2.80;;;;;;;;;;5013401;28;20220;-57
2023/09/26 03:18:45;;;;;;;3.00;2.60;;;;;;;;;;5013527;28;20194;-57
2023/09/26 03:21:14;;;;;;;3.10;2.80;;;;;;;;;;5013366;28;20528;-57
2023/09/26 03:23:40;;;;;;;3.23;2.93;;;;;;;;;;5013063;28;20194;-57
2023/09/26 03:26:12;;;;;;;2.47;2.27;;;;;;;;;;5013100;28;20201;-57
2023/09/26 03:28:38;;;;;;;3.77;2.27;;;;;;;;;;5012241;28;20271;-57
2023/09/26 03:31:05;;;;;;;2.60;2.40;;;;;;;;;;5013128;28;20202;-57
2023/09/26 03:33:32;;;;;;;2.97;2.63;;;;;;;;;;5013033;28;20225;-57
2023/09/26 03:35:59;;;;;;;4.20;3.47;;;;;;;;;;5012860;28;20664;-57
2023/09/26 03:38:25;;;;;;;2.60;2.33;;;;;;;;;;5012812;28;20279;-57
2023/09/26 03:40:55;;;;;;;4.97;2.83;;;;;;;;;;5013025;28;20285;-57
2023/09/26 03:43:23;;;;;;;2.70;2.40;;;;;;;;;;5012672;28;20678;-57
2023/09/26 03:45:49;;;;;;;3.00;2.70;;;;;;;;;;5013059;28;20208;-57
2023/09/26 03:48:15;;;;;;;3.47;2.70;;;;;;;;;;5012848;28;20281;-57
2023/09/26 03:50:42;;;;;;;2.77;2.57;;;;;;;;;;5012974;28;20668;-57
2023/09/26 03:53:08;;;;;;;2.70;2.30;;;;;;;;;;5012772;28;20205;-57
2023/09/26 03:55:34;;;;;;;3.20;2.47;;;;;;;;;;5012449;28;20202;-57
2023/09/26 03:58:00;;;;;;;2.93;2.63;;;;;;;;;;5012635;28;20198;-57
2023/09/26 04:00:28;;;;;;;3.40;3.10;;;;;;;;;;5012521;28;20201;-57
2023/09/26 04:02:56;;;;;;;4.27;3.03;;;;;;;;;;5012534;28;20668;-57
2023/09/26 04:05:22;;;;;;;3.30;2.80;;;;;;;;;;5012611;28;20205;-57
2023/09/26 04:07:48;;;;;;;3.50;2.80;;;;;;;;;;5012012;28;20198;-57
2023/09/26 04:10:14;;;;;;;2.80;2.60;;;;;;;;;;5012584;28;20213;-57
2023/09/26 04:12:41;;;;;;;3.00;2.70;;;;;;;;;;5012632;28;20256;-57
2023/09/26 04:15:07;;;;;;;2.97;2.70;;;;;;;;;;5012661;28;20240;-58
2023/09/26 04:17:35;;;;;;;2.70;2.50;;;;;;;;;;5012480;28;20460;-57
2023/09/26 04:20:13;;;;;;;2.93;2.53;;;;;;;;;;5012630;28;20212;-57
2023/09/26 04:22:39;;;;;;;2.63;2.40;;;;;;;;;;5012472;28;20205;-57
2023/09/26 04:25:05;;;;;;;3.00;2.70;;;;;;;;;;5012635;28;20197;-57
2023/09/26 04:27:31;;;;;;;3.33;2.57;;;;;;;;;;5012185;28;20223;-57
2023/09/26 04:29:57;;;;;;;2.73;2.53;;;;;;;;;;5012410;28;20255;-57
2023/09/26 04:32:23;;;;;;;3.20;2.50;;;;;;;;;;5012311;28;20190;-57
2023/09/26 04:34:50;;;;;;;2.67;2.43;;;;;;;;;;5012373;28;20613;-57
2023/09/26 04:37:16;;;;;;;2.90;2.60;;;;;;;;;;5012343;28;20320;-57
2023/09/26 04:39:42;;;;;;;2.83;2.57;;;;;;;;;;5011772;28;20829;-57
2023/09/26 04:42:08;;;;;;;3.20;2.63;;;;;;;;;;5012226;28;20198;-57
2023/09/26 04:44:34;;;;;;;3.33;2.57;;;;;;;;;;5011777;28;20668;-57
2023/09/26 04:47:00;;;;;;;2.37;2.17;;;;;;;;;;5011761;28;20193;-57
2023/09/26 04:49:26;;;;;;;3.43;2.80;;;;;;;;;;5012022;28;20251;-57
2023/09/26 04:51:54;;;;;;;2.77;2.57;;;;;;;;;;5012102;28;20202;-57
2023/09/26 04:54:20;;;;;;;3.30;2.33;;;;;;;;;;5011969;28;20216;-57
2023/09/26 04:56:46;;;;;;;4.30;2.80;;;;;;;;;;5011973;28;20217;-57
2023/09/26 04:59:12;;;;;;;3.00;2.50;;;;;;;;;;5011988;28;20197;-57
2023/09/26 05:01:38;;;;;;;2.70;2.50;;;;;;;;;;5011955;28;20205;-57
2023/09/26 05:04:05;;;;;;;2.90;2.60;;;;;;;;;;5012250;28;20252;-57
2023/09/26 05:06:31;;;;;;;3.27;2.63;;;;;;;;;;5011956;28;20560;-57
2023/09/26 05:08:58;;;;;;;3.13;2.87;;;;;;;;;;5012155;28;20194;-57
2023/09/26 05:11:26;;;;;;;3.13;2.83;;;;;;;;;;5011846;28;20687;-57
2023/09/26 05:13:52;;;;;;;3.37;3.07;;;;;;;;;;5011485;28;20616;-57
2023/09/26 05:16:18;;;;;;;3.67;2.90;;;;;;;;;;5011583;28;20237;-57
2023/09/26 05:18:44;;;;;;;4.80;3.17;;;;;;;;;;5011337;28;20205;-58
2023/09/26 05:21:11;;;;;;;3.23;2.53;;;;;;;;;;5011049;28;20743;-58
2023/09/26 05:23:37;;;;;;;3.60;2.80;;;;;;;;;;5011757;28;20232;-57
2023/09/26 05:26:06;;;;;;;4.03;2.83;;;;;;;;;;5011751;28;20618;-57
2023/09/26 05:28:32;;;;;;;3.20;2.90;;;;;;;;;;5011677;28;20206;-57
2023/09/26 05:30:58;;;;;;;3.40;3.10;;;;;;;;;;5011711;28;20232;-57
2023/09/26 05:33:24;;;;;;;3.17;2.97;;;;;;;;;;5009975;28;20205;-58
2023/09/26 05:35:53;;;;;;;3.97;3.23;;;;;;;;;;5011404;28;20726;-57
2023/09/26 05:38:19;;;;;;;3.20;2.90;;;;;;;;;;5011419;28;20313;-57
2023/09/26 05:40:45;;;;;;;3.13;2.70;;;;;;;;;;5011764;28;20205;-57
2023/09/26 05:43:12;;;;;;;3.50;3.07;;;;;;;;;;5011569;28;20377;-57
2023/09/26 05:45:38;;;;;;;3.73;3.07;;;;;;;;;;5011404;28;20560;-57
2023/09/26 05:48:04;;;;;;;3.40;3.10;;;;;;;;;;5011632;28;20284;-59
2023/09/26 05:50:31;;;;;;;4.93;3.53;;;;;;;;;;5011469;28;20629;-56
2023/09/26 05:52:57;;;;;;;3.20;2.90;;;;;;;;;;5013417;28;20206;-56
2023/09/26 05:55:23;;;;;;;8.10;3.00;;;;;;;;;;5014835;28;20651;-56
2023/09/26 05:57:49;;;;;;;4.83;3.37;;;;;;;;;;5014878;28;20229;-58
2023/09/26 06:00:16;;;;;;;4.27;3.27;;;;;;;;;;5015150;28;20196;-57
2023/09/26 06:02:43;;;;;;;4.33;3.07;;;;;;;;;;5014858;28;20575;-58
2023/09/26 06:05:11;;;;;;;4.97;3.63;;;;;;;;;;5015009;28;20276;-57
2023/09/26 06:07:37;;;;;;;3.53;3.23;;;;;;;;;;5014751;28;20208;-58
2023/09/26 06:10:03;;;;;;;6.93;4.10;;;;;;;;;;5014941;28;20194;-58
2023/09/26 06:12:30;;;;;;;7.37;3.87;;;;;;;;;;5014699;28;20197;-59
2023/09/26 06:14:56;;;;;;;3.67;3.37;;;;;;;;;;5014844;28;20292;-59
2023/09/26 06:17:24;;;;;;;4.60;3.60;;;;;;;;;;5014632;28;20295;-59
2023/09/26 06:19:50;;;;;;;6.13;4.20;;;;;;;;;;5014688;28;20198;-58
2023/09/26 06:22:16;;;;;;;4.90;4.17;;;;;;;;;;5012609;28;20555;-60
2023/09/26 06:24:42;;;;;;;5.07;3.80;;;;;;;;;;5014583;28;20198;-59
2023/09/26 06:27:08;;;;;;;4.17;3.50;;;;;;;;;;5014354;28;20193;-59
2023/09/26 06:29:38;;;;;;;4.73;3.60;;;;;;;;;;5014299;28;20215;-58
2023/09/26 06:32:04;;;;;;;5.33;4.50;;;;;;;;;;5014265;28;20205;-57
2023/09/26 06:34:32;;;;;;;4.00;3.60;;;;;;;;;;5014029;28;20204;-57
2023/09/26 06:36:58;;;;;;;4.13;3.67;;;;;;;;;;5014121;28;20313;-58
2023/09/26 06:39:24;;;;;;;4.23;3.83;;;;;;;;;;5013787;28;20667;-59
2023/09/26 06:41:50;;;;;;;4.13;3.43;;;;;;;;;;5014202;28;20280;-59
2023/09/26 06:44:16;;;;;;;4.13;3.73;;;;;;;;;;5014075;28;20236;-59
2023/09/26 06:46:42;;;;;;;5.77;3.70;;;;;;;;;;5013895;28;20252;-57
2023/09/26 06:49:08;;;;;;;8.87;3.83;;;;;;;;;;5013896;28;20209;-58
2023/09/26 06:51:35;;;;;;;6.77;3.97;;;;;;;;;;5013758;28;20201;-57
2023/09/26 06:54:01;;;;;;;8.07;4.07;;;;;;;;;;5013877;28;20209;-57
2023/09/26 06:56:28;;;;;;;6.00;4.00;;;;;;;;;;5013483;28;20658;-58
2023/09/26 06:58:54;;;;;;;7.83;4.20;;;;;;;;;;5013692;28;20208;-57
2023/09/26 07:01:20;;;;;;;6.30;4.00;;;;;;;;;;5013559;28;20204;-57
2023/09/26 07:03:46;;;;;;;4.83;4.23;;;;;;;;;;5013661;28;20197;-58
2023/09/26 07:06:13;;;;;;;6.07;3.67;;;;;;;;;;5013589;28;20198;-57
2023/09/26 07:08:41;;;;;;;7.87;3.70;;;;;;;;;;5013298;28;20277;-57
2023/09/26 07:11:09;;;;;;;5.10;3.57;;;;;;;;;;5013487;28;20800;-58
2023/09/26 07:13:35;;;;;;;4.10;3.70;;;;;;;;;;5013455;28;20759;-58
2023/09/26 07:16:03;;;;;;;6.13;3.57;;;;;;;;;;5013428;28;20205;-57
2023/09/26 07:18:29;;;;;;;6.50;3.73;;;;;;;;;;5013234;28;20236;-57
2023/09/26 07:20:55;;;;;;;5.73;3.60;;;;;;;;;;5013409;28;20201;-58
2023/09/26 07:23:21;;;;;;;7.97;3.83;;;;;;;;;;5013238;28;20293;-57
2023/09/26 07:25:48;;;;;;;4.73;3.73;;;;;;;;;;5011662;28;20272;-57
2023/09/26 07:28:14;;;;;;;8.17;3.70;;;;;;;;;;5013276;28;20201;-57
2023/09/26 07:30:41;;;;;;;5.57;3.40;;;;;;;;;;5013155;28;20298;-58
2023/09/26 07:33:07;;;;;;;5.90;3.30;;;;;;;;;;5013206;28;20232;-58
2023/09/26 07:35:33;;;;;;;3.83;3.50;;;;;;;;;;5011036;28;20217;-58
2023/09/26 07:37:59;;;;;;;3.87;2.90;;;;;;;;;;5011285;28;20240;-57
2023/09/26 07:40:26;;;;;;;5.23;3.40;;;;;;;;;;5011759;28;20734;-58
2023/09/26 07:42:53;;;;;;;4.30;3.27;;;;;;;;;;5013139;28;20232;-58
2023/09/26 07:45:19;;;;;;;4.60;3.50;;;;;;;;;;5013224;28;20636;-58
2023/09/26 07:47:45;;;;;;;4.57;3.53;;;;;;;;;;5012894;28;20711;-57
2023/09/26 07:50:11;;;;;;;4.03;3.63;;;;;;;;;;5013125;28;20224;-57
2023/09/26 07:52:37;;;;;;;4.37;3.60;;;;;;;;;;5012836;28;20211;-57
2023/09/26 07:55:05;;;;;;;6.57;3.20;;;;;;;;;;5013012;28;20240;-57
2023/09/26 07:57:31;;;;;;;4.03;3.13;;;;;;;;;;5012432;28;20709;-57
2023/09/26 07:59:59;;;;;;;4.07;3.40;;;;;;;;;;5012733;28;20201;-55
2023/09/26 08:02:25;;;;;;;4.37;3.87;;;;;;;;;;5012520;28;20208;-59
2023/09/26 08:04:51;;;;;;;3.60;3.30;;;;;;;;;;5012688;28;20276;-57
2023/09/26 08:07:17;;;;;;;4.80;3.40;;;;;;;;;;5012740;28;20213;-55
2023/09/26 08:09:43;;;;;;;3.80;3.50;;;;;;;;;;5012471;28;20253;-57
2023/09/26 08:12:09;;;;;;;3.50;3.20;;;;;;;;;;5012493;28;20205;-58
2023/09/26 08:14:35;;;;;;;5.67;3.27;;;;;;;;;;5012013;28;20561;-61
2023/09/26 08:17:06;;;;;;;3.13;2.83;;;;;;;;;;5012430;28;20711;-58
2023/09/26 08:19:32;;;;;;;4.07;3.37;;;;;;;;;;5012224;28;20206;-55
2023/09/26 08:21:58;;;;;;;3.30;2.87;;;;;;;;;;5012299;28;20197;-56
2023/09/26 08:24:24;;;;;;;3.57;3.20;;;;;;;;;;5012268;28;20661;-56
2023/09/26 08:26:50;;;;;;;3.63;2.80;;;;;;;;;;5012411;28;20233;-55
2023/09/26 08:29:16;;;;;;;6.43;3.33;;;;;;;;;;5012436;28;20246;-57
2023/09/26 08:31:42;;;;;;;3.70;3.00;;;;;;;;;;5012342;28;20205;-56
2023/09/26 08:34:10;;;;;;;4.10;3.50;;;;;;;;;;5012135;28;20201;-56
2023/09/26 08:36:36;;;;;;;5.07;2.80;;;;;;;;;;5011825;28;20307;-55
2023/09/26 08:39:02;;;;;;;3.33;3.03;;;;;;;;;;5012099;28;20237;-57
2023/09/26 08:41:28;;;;;;;3.30;3.00;;;;;;;;;;5011855;28;20234;-57
2023/09/26 08:43:54;;;;;;;4.27;2.90;;;;;;;;;;5012057;28;20236;-56
2023/09/26 08:46:20;;;;;;;3.63;2.67;;;;;;;;;;5011996;28;20238;-57
2023/09/26 08:48:46;;;;;;;4.47;2.90;;;;;;;;;;5011938;28;20243;-57
2023/09/26 08:51:14;;;;;;;3.13;2.77;;;;;;;;;;5010167;28;20205;-57
2023/09/26 08:53:40;;;;;;;3.10;2.80;;;;;;;;;;5011831;28;20208;-57
2023/09/26 08:56:06;;;;;;;3.83;3.13;;;;;;;;;;5011817;28;20189;-57
2023/09/26 08:58:32;;;;;;;2.70;2.50;;;;;;;;;;5011933;28;20197;-57
2023/09/26 09:00:58;;;;;;;2.97;2.67;;;;;;;;;;5008216;28;20201;-58
2023/09/26 09:03:24;;;;;;;3.37;2.80;;;;;;;;;;5011536;28;20255;-55
2023/09/26 09:05:50;;;;;;;4.43;2.50;;;;;;;;;;5011847;28;20222;-55
2023/09/26 09:08:19;;;;;;;5.13;2.93;;;;;;;;;;5011892;28;20221;-55
2023/09/26 09:10:49;;;;;;;4.13;2.70;;;;;;;;;;5011710;28;20567;-57
2023/09/26 09:13:25;;;;;;;3.17;2.47;;;;;;;;;;5011788;28;20205;-55
2023/09/26 09:15:51;;;;;;;5.23;2.70;;;;;;;;;;5011685;28;20210;-55
2023/09/26 09:18:29;;;;;;;3.60;2.50;;;;;;;;;;5011551;28;20233;-55
2023/09/26 09:20:56;;;;;;;2.50;2.30;;;;;;;;;;5012076;28;20205;-55
2023/09/26 09:23:23;;;;;;;3.70;2.30;;;;;;;;;;5011937;28;20410;-55
2023/09/26 09:25:51;;;;;;;2.60;2.40;;;;;;;;;;5011954;28;20202;-57
2023/09/26 09:28:19;;;;;;;4.33;2.53;;;;;;;;;;5014746;28;20193;-56
2023/09/26 09:30:46;;;;;;;4.33;2.60;;;;;;;;;;5015654;28;20201;-56
2023/09/26 09:33:13;;;;;;;3.90;2.70;;;;;;;;;;5015469;28;20681;-56
2023/09/26 09:35:40;;;;;;;2.50;2.30;;;;;;;;;;5015347;28;20711;-56
2023/09/26 09:38:08;;;;;;;3.33;2.30;;;;;;;;;;5015434;28;20233;-56
2023/09/26 09:40:36;;;;;;;2.13;1.93;;;;;;;;;;5015405;28;20195;-56
2023/09/26 09:43:02;;;;;;;2.43;2.10;;;;;;;;;;5015602;28;20211;-56
2023/09/26 09:45:29;;;;;;;3.53;2.20;;;;;;;;;;5015457;28;20205;-56
2023/09/26 09:48:01;;;;;;;4.37;2.20;;;;;;;;;;5015479;28;20623;-56
2023/09/26 09:50:28;;;;;;;2.53;1.97;;;;;;;;;;5015399;28;20198;-56
2023/09/26 09:52:56;;;;;;;4.40;2.03;;;;;;;;;;5015238;28;20665;-56
2023/09/26 09:55:24;;;;;;;2.33;2.10;;;;;;;;;;5015102;28;20583;-56
2023/09/26 09:57:51;;;;;;;4.13;1.90;;;;;;;;;;5015281;28;20280;-55
2023/09/26 10:00:24;;;;;;;2.50;1.80;;;;;;;;;;5015187;28;20290;-56
2023/09/26 10:02:50;;;;;;;2.43;2.00;;;;;;;;;;5011414;28;20210;-56
2023/09/26 10:05:19;;;;;;;2.90;1.90;;;;;;;;;;5014606;28;20203;-56
2023/09/26 10:07:46;;;;;;;3.10;2.00;;;;;;;;;;5013397;28;20191;-56
2023/09/26 10:10:13;;;;;;;3.50;2.10;;;;;;;;;;5014730;28;20207;-56
2023/09/26 10:12:40;;;;;;;4.37;2.00;;;;;;;;;;5014549;28;20199;-56
2023/09/26 10:15:11;;;;;;;3.13;2.03;;;;;;;;;;5014695;28;20207;-55
2023/09/26 10:17:38;;;;;;;2.83;2.00;;;;;;;;;;5014451;28;20649;-56
2023/09/26 10:20:07;;;;;;;1.97;1.70;;;;;;;;;;5014887;28;20279;-56
2023/09/26 10:22:34;;;;;;;3.77;2.10;;;;;;;;;;5014545;28;20705;-56
2023/09/26 10:25:02;;;;;;;2.27;2.00;;;;;;;;;;5014713;28;20254;-55
2023/09/26 10:27:38;;;;;;;3.77;1.97;;;;;;;;;;5014494;28;20233;-56
2023/09/26 10:30:10;;;;;;;1.97;1.73;;;;;;;;;;5014792;28;20231;-57
2023/09/26 10:32:39;;;;;;;4.07;1.97;;;;;;;;;;5013219;28;20200;-55
2023/09/26 10:35:20;;;;;;;1.93;1.70;;;;;;;;;;5014359;28;20230;-54
2023/09/26 10:37:49;;;;;;;3.40;2.10;;;;;;;;;;5013520;28;20243;-54
2023/09/26 10:40:19;;;;;;;3.43;1.80;;;;;;;;;;5014555;28;20253;-55
2023/09/26 10:42:46;;;;;;;3.97;2.17;;;;;;;;;;5014080;28;20251;-55
2023/09/26 10:45:13;;;;;;;2.37;2.03;;;;;;;;;;5014325;28;20237;-55
2023/09/26 10:47:41;;;;;;;4.63;2.40;;;;;;;;;;5014002;28;20199;-55
2023/09/26 10:50:08;;;;;;;5.10;2.20;;;;;;;;;;5014224;28;20207;-55
2023/09/26 10:52:34;;;;;;;2.47;2.00;;;;;;;;;;5013950;28;20752;-55
2023/09/26 10:55:00;;;;;;;8.67;7.80;;;;;;;;;;5014025;28;20191;-55
2023/09/26 10:57:26;;;;;;;3.33;1.87;;;;;;;;;;5013798;28;20278;-55
2023/09/26 10:59:54;;;;;;;2.77;2.10;;;;;;;;;;5013948;28;20251;-54
2023/09/26 11:02:21;;;;;;;4.17;2.20;;;;;;;;;;5013761;28;20214;-55
2023/09/26 11:04:48;;;;;;;3.13;1.87;;;;;;;;;;5013843;28;20304;-54
2023/09/26 11:07:15;;;;;;;5.20;1.93;;;;;;;;;;5013860;28;20236;-54
2023/09/26 11:09:42;;;;;;;3.43;2.10;;;;;;;;;;5013859;28;20229;-54
2023/09/26 11:12:09;;;;;;;3.00;2.00;;;;;;;;;;5013642;28;20210;-54
2023/09/26 11:14:35;;;;;;;2.37;1.80;;;;;;;;;;5012252;28;20205;-54
2023/09/26 11:17:01;;;;;;;4.10;1.90;;;;;;;;;;5013447;28;20316;-54
2023/09/26 11:19:27;;;;;;;2.60;1.60;;;;;;;;;;5012965;28;20280;-55
2023/09/26 11:21:55;;;;;;;3.07;1.90;;;;;;;;;;5008344;28;20670;-53
2023/09/26 11:24:22;;;;;;;3.70;2.20;;;;;;;;;;5020593;28;20286;-54
2023/09/26 11:26:48;;;;;;;3.03;1.90;;;;;;;;;;5032603;28;20203;-52
2023/09/26 11:29:14;;;;;;;2.17;1.80;;;;;;;;;;5032781;28;20223;-54
2023/09/26 11:31:41;;;;;;;2.33;2.03;;;;;;;;;;5032849;28;20199;-50
2023/09/26 11:34:08;;;;;;;2.70;1.77;;;;;;;;;;5032964;28;20615;-54
2023/09/26 11:36:34;;;;;;;3.20;2.10;;;;;;;;;;5032496;28;20228;-55
2023/09/26 11:39:03;;;;;;;2.37;1.80;;;;;;;;;;5032384;28;20346;-53
2023/09/26 11:41:29;;;;;;;1.90;1.67;;;;;;;;;;5032707;28;20204;-54
2023/09/26 11:43:55;;;;;;;2.00;1.80;;;;;;;;;;5032545;28;20211;-55
2023/09/26 11:46:22;;;;;;;2.90;1.93;;;;;;;;;;5032463;28;20241;-54
2023/09/26 11:48:49;;;;;;;3.33;2.00;;;;;;;;;;5032481;28;20206;-54
2023/09/26 11:51:15;;;;;;;4.60;1.70;;;;;;;;;;5031550;28;20205;-55
2023/09/26 11:53:41;;;;;;;2.87;2.00;;;;;;;;;;5025015;28;20201;-54
2023/09/26 11:56:08;;;;;;;2.73;2.43;;;;;;;;;;5012722;28;20194;-54
2023/09/26 11:58:35;;;;;;;2.30;1.90;;;;;;;;;;5012544;28;20252;-54
2023/09/26 12:01:01;;;;;;;2.97;1.90;;;;;;;;;;5012920;28;20225;-55
2023/09/26 12:03:27;;;;;;;2.43;1.97;;;;;;;;;;5011694;28;20750;-55
2023/09/26 12:05:53;;;;;;;2.40;1.63;;;;;;;;;;5012689;28;20659;-55
2023/09/26 12:08:19;;;;;;;2.80;1.73;;;;;;;;;;5012581;28;20197;-55
2023/09/26 12:10:46;;;;;;;2.17;1.70;;;;;;;;;;5012456;28;20340;-54
2023/09/26 12:13:13;;;;;;;1.90;1.70;;;;;;;;;;5012497;28;20776;-55
2023/09/26 12:15:39;;;;;;;2.37;1.80;;;;;;;;;;5011905;28;20213;-55
2023/09/26 12:18:05;;;;;;;2.53;1.50;;;;;;;;;;5010446;28;20625;-56
2023/09/26 12:20:31;;;;;;;3.30;1.93;;;;;;;;;;5010698;28;20277;-56
2023/09/26 12:22:58;;;;;;;3.70;2.10;;;;;;;;;;5012471;28;20222;-55
2023/09/26 12:25:24;;;;;;;2.83;1.70;;;;;;;;;;5012282;28;20203;-54
2023/09/26 12:27:50;;;;;;;2.33;1.70;;;;;;;;;;5012162;28;20274;-54
2023/09/26 12:30:21;;;;;;;3.63;1.90;;;;;;;;;;5012414;28;20226;-54
2023/09/26 12:32:47;;;;;;;3.97;1.97;;;;;;;;;;5012352;28;20211;-53
2023/09/26 12:35:13;;;;;;;2.90;1.77;;;;;;;;;;5012386;28;20323;-54
2023/09/26 12:37:41;;;;;;;2.30;1.70;;;;;;;;;;5011990;28;20232;-56
2023/09/26 12:40:14;;;;;;;4.57;1.87;;;;;;;;;;5012372;28;20225;-54
2023/09/26 12:42:40;;;;;;;1.70;1.60;;;;;;;;;;5012278;28;20220;-53
2023/09/26 12:45:07;;;;;;;3.10;2.07;;;;;;;;;;5012327;28;20214;-58
2023/09/26 12:47:35;;;;;;;2.63;1.77;;;;;;;;;;5012111;28;20289;-55
2023/09/26 12:50:04;;;;;;;3.13;1.97;;;;;;;;;;5012072;28;20217;-54
2023/09/26 12:52:31;;;;;;;2.23;1.80;;;;;;;;;;5010688;28;20287;-54
2023/09/26 12:54:57;;;;;;;1.80;1.50;;;;;;;;;;5012275;28;20673;-54
2023/09/26 12:57:23;;;;;;;2.10;1.90;;;;;;;;;;5009969;28;20312;-54
2023/09/26 12:59:50;;;;;;;3.10;1.80;;;;;;;;;;5009338;28;20657;-54
2023/09/26 13:02:16;;;;;;;5.00;1.60;;;;;;;;;;5014197;28;20883;-53
2023/09/26 13:04:43;;;;;;;1.97;1.50;;;;;;;;;;5015818;28;20203;-53
2023/09/26 13:07:09;;;;;;;1.60;1.50;;;;;;;;;;5015976;28;20199;-54
2023/09/26 13:09:36;;;;;;;2.20;1.80;;;;;;;;;;5015742;28;20294;-54
2023/09/26 13:12:02;;;;;;;4.10;1.80;;;;;;;;;;5015966;28;20210;-54
2023/09/26 13:14:28;;;;;;;2.10;1.70;;;;;;;;;;5015774;28;20209;-54
2023/09/26 13:16:54;;;;;;;2.67;1.60;;;;;;;;;;5013482;28;20557;-54
2023/09/26 13:19:24;;;;;;;1.93;1.60;;;;;;;;;;5015413;28;20231;-53
2023/09/26 13:21:53;;;;;;;1.87;1.70;;;;;;;;;;5015514;28;20211;-53
2023/09/26 13:24:20;;;;;;;1.83;1.60;;;;;;;;;;5015508;28;20207;-53
2023/09/26 13:26:46;;;;;;;3.57;1.87;;;;;;;;;;5013533;28;20221;-53
2023/09/26 13:29:12;;;;;;;3.53;1.67;;;;;;;;;;5014865;28;20209;-53
2023/09/26 13:31:42;;;;;;;2.10;1.90;;;;;;;;;;5014756;28;20654;-53
2023/09/26 13:34:08;;;;;;;2.20;1.80;;;;;;;;;;5015358;28;20225;-53
2023/09/26 13:36:34;;;;;;;1.63;1.53;;;;;;;;;;5005773;28;20272;-53
2023/09/26 13:39:02;;;;;;;5.40;1.67;;;;;;;;;;4995784;28;20230;-54
2023/09/26 13:41:29;;;;;;;1.97;1.60;;;;;;;;;;4995730;28;20677;-53
2023/09/26 13:43:55;;;;;;;2.03;1.73;;;;;;;;;;4995649;28;20253;-54
2023/09/26 13:46:21;;;;;;;2.87;1.50;;;;;;;;;;4995476;28;20617;-53
2023/09/26 13:48:48;;;;;;;1.67;1.57;;;;;;;;;;4995544;28;20204;-54
2023/09/26 13:51:14;;;;;;;4.67;1.90;;;;;;;;;;4995392;28;20304;-54
2023/09/26 13:53:40;;;;;;;3.00;1.90;;;;;;;;;;4995584;28;20205;-53
2023/09/26 13:56:08;;;;;;;1.60;1.50;;;;;;;;;;4995318;28;20206;-53
2023/09/26 13:58:34;;;;;;;2.27;1.90;;;;;;;;;;4995380;28;20236;-53
2023/09/26 14:01:04;;;;;;;2.20;1.90;;;;;;;;;;4993568;28;20206;-53
2023/09/26 14:03:31;;;;;;;2.47;1.90;;;;;;;;;;4995100;28;20255;-54
2023/09/26 14:05:57;;;;;;;2.30;1.80;;;;;;;;;;5000537;28;20204;-53
2023/09/26 14:08:23;;;;;;;4.63;1.60;;;;;;;;;;5014892;28;20200;-53
2023/09/26 14:10:49;;;;;;;2.83;1.80;;;;;;;;;;5014648;28;20338;-53
2023/09/26 14:13:16;;;;;;;1.67;1.57;;;;;;;;;;5012065;28;20297;-53
2023/09/26 14:15:45;;;;;;;2.80;1.47;;;;;;;;;;5014507;28;20287;-53
2023/09/26 14:18:11;;;;;;;1.93;1.60;;;;;;;;;;5014793;28;20313;-54
2023/09/26 14:20:37;;;;;;;1.70;1.50;;;;;;;;;;5014564;28;20663;-54
2023/09/26 14:23:05;;;;;;;2.87;1.50;;;;;;;;;;5014635;28;20313;-53
2023/09/26 14:25:31;;;;;;;2.73;1.60;;;;;;;;;;5014391;28;20572;-53
2023/09/26 14:28:00;;;;;;;2.87;1.83;;;;;;;;;;5012280;28;20647;-53
2023/09/26 14:30:27;;;;;;;2.90;1.87;;;;;;;;;;5014150;28;20198;-53
2023/09/26 14:32:53;;;;;;;1.93;1.73;;;;;;;;;;5014288;28;20239;-54
2023/09/26 14:35:20;;;;;;;2.00;1.63;;;;;;;;;;5014136;28;20224;-54
2023/09/26 14:37:46;;;;;;;5.67;3.80;;;;;;;;;;5013809;28;20242;-54
2023/09/26 14:40:12;;;;;;;3.27;1.87;;;;;;;;;;5014050;28;20204;-55